Time;durP1;ratioP1;P1;durP2;ratioP2;P2;SDS_P1;SDS_P2;PMS_P1;PMS_P2;Temp;Humidity;BMP_temperature;BMP_pressure;BME280_temperature;BME280_humidity;BME280_pressure;Samples;Min_cycle;Max_cycle;Signal;HPM_P1;HPM_P2
2024/03/28 00:02:03;;;;;;;4.10;3.70;;;;;;;12.84;61.50;98252.20;107419;1312;22321;-63
2024/03/28 00:04:28;;;;;;;8.90;3.60;;;;;;;12.83;61.73;98253.65;107388;1313;22256;-63
2024/03/28 00:06:54;;;;;;;10.20;3.80;;;;;;;12.81;61.98;98250.14;107477;1313;22284;-63
2024/03/28 00:09:22;;;;;;;5.20;3.90;;;;;;;12.75;62.19;98244.65;107574;1312;22255;-63
2024/03/28 00:11:48;;;;;;;7.50;3.90;;;;;;;12.70;61.89;98241.33;107553;1294;22269;-63
2024/03/28 00:14:14;;;;;;;6.00;3.80;;;;;;;12.68;62.20;98242.31;107611;1312;22340;-63
2024/03/28 00:16:40;;;;;;;7.80;4.30;;;;;;;12.62;62.10;98237.51;107596;1312;22389;-63
2024/03/28 00:19:05;;;;;;;5.50;4.20;;;;;;;12.57;61.84;98232.96;107574;1309;22281;-63
2024/03/28 00:21:31;;;;;;;6.40;4.30;;;;;;;12.53;62.41;98234.44;107425;1294;22265;-63
2024/03/28 00:23:56;;;;;;;5.70;4.20;;;;;;;12.52;62.25;98237.27;107606;1312;22224;-63
2024/03/28 00:26:22;;;;;;;7.20;3.80;;;;;;;12.49;62.16;98229.82;107575;1312;23087;-63
2024/03/28 00:28:47;;;;;;;6.20;4.30;;;;;;;12.44;62.80;98227.45;107575;1312;22256;-63
2024/03/28 00:31:13;;;;;;;8.90;3.90;;;;;;;12.41;62.37;98221.91;107564;1294;22272;-63
2024/03/28 00:33:38;;;;;;;5.80;4.70;;;;;;;12.37;62.27;98220.92;107593;1312;22791;-63
2024/03/28 00:36:04;;;;;;;6.10;3.80;;;;;;;12.33;62.29;98219.80;107604;1312;22258;-63
2024/03/28 00:38:29;;;;;;;7.00;3.80;;;;;;;12.30;63.34;98221.89;107423;1312;22206;-63
2024/03/28 00:40:55;;;;;;;4.90;3.60;;;;;;;12.29;62.62;98220.91;107548;1294;22245;-63
2024/03/28 00:43:22;;;;;;;9.70;4.30;;;;;;;12.28;62.95;98217.01;107594;1311;22259;-63
2024/03/28 00:45:48;;;;;;;5.70;4.20;;;;;;;12.27;62.84;98217.56;107592;1307;22307;-63
2024/03/28 00:48:16;;;;;;;7.50;4.30;;;;;;;12.29;62.91;98211.45;107268;1312;22498;-63
2024/03/28 00:50:41;;;;;;;8.30;3.80;;;;;;;12.29;62.67;98206.40;107558;1298;22260;-63
2024/03/28 00:53:07;;;;;;;5.60;4.00;;;;;;;12.27;63.52;98204.81;107624;1312;22235;-63
2024/03/28 00:55:35;;;;;;;4.80;4.00;;;;;;;12.22;63.32;98203.73;107594;1307;23068;-63
2024/03/28 00:58:00;;;;;;;4.50;3.70;;;;;;;12.20;63.24;98194.65;107593;1312;22238;-63
2024/03/28 01:00:26;;;;;;;6.50;4.20;;;;;;;12.19;63.19;98191.12;107603;1308;22276;-63
2024/03/28 01:02:51;;;;;;;6.70;3.80;;;;;;;12.16;63.03;98190.06;107578;1293;22343;-63
2024/03/28 01:05:17;;;;;;;8.10;4.40;;;;;;;12.17;63.02;98184.34;107436;1312;23384;-65
2024/03/28 01:07:42;;;;;;;7.90;3.90;;;;;;;12.17;63.16;98183.48;107381;1312;22318;-65
2024/03/28 01:10:08;;;;;;;7.40;3.70;;;;;;;12.19;63.88;98180.76;107371;1312;23173;-65
2024/03/28 01:12:34;;;;;;;6.70;3.90;;;;;;;12.22;63.51;98168.98;107397;1294;23092;-65
2024/03/28 01:14:59;;;;;;;9.70;4.50;;;;;;;12.22;63.83;98170.87;107384;1312;22381;-65
2024/03/28 01:17:25;;;;;;;7.90;4.20;;;;;;;12.22;63.77;98169.54;107404;1312;22292;-65
2024/03/28 01:19:51;;;;;;;7.40;3.70;;;;;;;12.19;64.02;98166.93;107287;1312;22252;-65
2024/03/28 01:22:17;;;;;;;5.30;3.80;;;;;;;12.17;64.05;98166.53;107409;1299;22270;-64
2024/03/28 01:24:43;;;;;;;5.20;3.70;;;;;;;12.16;63.64;98157.44;107449;1311;22219;-65
2024/03/28 01:27:08;;;;;;;9.00;4.00;;;;;;;12.14;63.43;98154.80;107422;1312;23206;-64
2024/03/28 01:29:34;;;;;;;7.70;4.10;;;;;;;12.13;63.71;98154.69;107361;1312;22369;-64
2024/03/28 01:31:59;;;;;;;7.20;3.90;;;;;;;12.13;63.94;98154.68;107376;1293;22276;-65
2024/03/28 01:34:26;;;;;;;5.80;3.60;;;;;;;12.16;63.89;98153.81;107383;1312;22749;-65
2024/03/28 01:36:51;;;;;;;;;;;;;;;12.15;63.48;98145.12;107378;1312;22496;-65
2024/03/28 01:39:17;;;;;;;4.10;3.50;;;;;;;12.11;63.81;98139.30;107378;1309;22236;-64
2024/03/28 01:41:42;;;;;;;6.50;3.70;;;;;;;12.08;63.46;98137.44;107361;1290;22359;-64
2024/03/28 01:44:08;;;;;;;9.10;4.10;;;;;;;12.04;64.19;98137.64;107370;1312;23401;-64
2024/03/28 01:46:33;;;;;;;5.30;3.40;;;;;;;12.02;63.81;98141.77;107375;1312;22384;-65
2024/03/28 01:48:59;;;;;;;9.00;4.10;;;;;;;12.00;63.81;98141.88;107391;1312;22209;-65
2024/03/28 01:51:24;;;;;;;4.40;3.60;;;;;;;12.02;64.20;98145.02;107390;1305;22247;-65
2024/03/28 01:53:50;;;;;;;5.10;4.00;;;;;;;12.05;63.99;98144.69;107364;1291;23304;-65
2024/03/28 01:56:17;;;;;;;6.20;3.80;;;;;;;12.07;64.38;98140.73;107389;1312;22243;-64
2024/03/28 01:58:45;;;;;;;7.70;3.90;;;;;;;12.10;64.21;98138.69;107376;1308;23180;-64
2024/03/28 02:01:12;;;;;;;7.10;4.30;;;;;;;12.11;63.95;98138.61;107463;1311;22279;-64
2024/03/28 02:03:37;;;;;;;7.90;4.30;;;;;;;12.11;63.87;98131.17;107398;1293;22293;-64
2024/03/28 02:06:03;;;;;;;10.10;4.30;;;;;;;12.11;63.55;98126.30;107261;1312;22242;-65
2024/03/28 02:08:29;;;;;;;5.50;3.80;;;;;;;12.13;63.68;98124.35;107384;1298;22306;-64
2024/03/28 02:10:56;;;;;;;5.70;3.90;;;;;;;12.13;63.66;98126.55;107369;1312;22274;-64
2024/03/28 02:13:22;;;;;;;8.90;4.30;;;;;;;12.13;63.66;98125.89;107377;1294;22313;-65
2024/03/28 02:15:47;;;;;;;7.30;4.50;;;;;;;12.12;63.82;98125.05;107346;1312;22372;-61
2024/03/28 02:18:12;;;;;;;6.10;4.60;;;;;;;12.12;63.90;98123.50;107336;1311;22274;-60
2024/03/28 02:20:38;;;;;;;8.60;4.60;;;;;;;12.11;63.97;98125.31;107495;1311;22356;-60
2024/03/28 02:23:03;;;;;;;8.90;4.70;;;;;;;12.10;63.68;98125.52;107541;1293;22297;-61
2024/03/28 02:25:29;;;;;;;9.30;4.60;;;;;;;12.10;64.19;98127.45;107495;1312;22368;-60
2024/03/28 02:27:55;;;;;;;12.80;4.70;;;;;;;12.08;63.98;98127.39;107339;1308;22268;-61
2024/03/28 02:30:20;;;;;;;7.30;4.60;;;;;;;12.07;64.09;98123.31;107474;1312;22243;-61
2024/03/28 02:32:46;;;;;;;13.00;4.60;;;;;;;12.07;64.11;98123.63;107492;1290;22240;-60
2024/03/28 02:35:11;;;;;;;8.20;4.90;;;;;;;12.08;63.76;98126.70;107476;1312;22338;-61
2024/03/28 02:37:37;;;;;;;7.10;4.60;;;;;;;12.09;63.98;98118.86;107463;1312;22302;-61
2024/03/28 02:40:02;;;;;;;9.70;5.10;;;;;;;12.10;64.07;98109.10;107386;1313;22355;-61
2024/03/28 02:42:28;;;;;;;10.40;5.10;;;;;;;12.12;64.33;98109.55;107378;1312;22377;-61
2024/03/28 02:44:53;;;;;;;8.20;4.50;;;;;;;12.15;64.22;98102.45;107439;1288;22281;-60
2024/03/28 02:47:19;;;;;;;11.30;4.90;;;;;;;12.17;63.99;98104.20;107452;1312;22363;-60
2024/03/28 02:49:44;;;;;;;10.10;4.30;;;;;;;12.18;63.88;98100.17;107494;1312;22259;-61
2024/03/28 02:52:10;;;;;;;12.10;4.40;;;;;;;12.19;64.20;98096.98;107344;1308;22983;-61
2024/03/28 02:54:35;;;;;;;8.00;4.10;;;;;;;12.22;64.20;98092.83;107314;1295;22328;-60
2024/03/28 02:57:05;;;;;;;11.60;5.30;;;;;;;12.29;64.31;98092.77;107472;1312;22279;-60
2024/03/28 02:59:31;;;;;;;10.20;4.90;;;;;;;12.32;64.15;98100.16;107363;1312;22468;-61
2024/03/28 03:01:57;;;;;;;8.30;4.90;;;;;;;12.35;64.17;98099.61;107544;1311;22436;-60
2024/03/28 03:04:23;;;;;;;13.20;5.00;;;;;;;12.37;64.46;98099.11;107340;1294;22226;-60
2024/03/28 03:06:48;;;;;;;8.00;5.00;;;;;;;12.39;64.55;98095.91;107468;1313;22456;-61
2024/03/28 03:09:14;;;;;;;6.60;4.20;;;;;;;12.40;64.31;98094.77;107469;1313;22341;-61
2024/03/28 03:11:39;;;;;;;8.50;4.40;;;;;;;12.43;64.28;98093.92;107449;1310;22363;-60
2024/03/28 03:14:05;;;;;;;9.30;5.20;;;;;;;12.45;64.02;98087.88;107308;1291;22318;-61
2024/03/28 03:16:30;;;;;;;10.60;5.60;;;;;;;12.46;64.09;98086.64;107423;1312;22880;-61
2024/03/28 03:18:56;;;;;;;12.10;5.70;;;;;;;12.46;64.08;98082.83;107462;1312;23094;-61
2024/03/28 03:21:21;;;;;;;13.30;5.40;;;;;;;12.48;64.35;98086.00;107363;1311;23138;-60
2024/03/28 03:23:49;;;;;;;10.00;5.00;;;;;;;12.49;64.40;98084.00;107448;1292;23157;-60
2024/03/28 03:26:24;;;;;;;9.40;5.30;;;;;;;12.51;64.29;98076.44;107603;1313;23036;-63
2024/03/28 03:34:37;;;;;;;8.50;4.70;;;;;;;12.48;64.17;98070.42;107453;1294;22264;-63
2024/03/28 03:37:09;;;;;;;9.10;5.50;;;;;;;12.46;64.19;98060.89;107636;1313;22246;-63
2024/03/28 03:39:36;;;;;;;11.50;5.40;;;;;;;12.43;64.53;98056.10;107627;1305;22307;-63
2024/03/28 03:42:02;;;;;;;8.10;5.10;;;;;;;12.40;64.38;98052.96;107653;1312;23018;-63
2024/03/28 03:44:27;;;;;;;8.20;5.10;;;;;;;12.38;64.52;98047.23;107652;1303;22391;-63
2024/03/28 03:46:52;;;;;;;7.90;4.90;;;;;;;12.35;64.87;98042.27;107652;1312;22299;-63
2024/03/28 03:49:18;;;;;;;10.30;5.20;;;;;;;12.32;64.78;98037.82;107694;1312;22247;-63
2024/03/28 03:51:43;;;;;;;11.70;5.30;;;;;;;12.29;64.42;98029.85;107697;1312;22996;-63
2024/03/28 03:54:09;;;;;;;11.50;4.90;;;;;;;12.27;64.93;98028.05;107736;1303;22407;-63
2024/03/28 03:56:35;;;;;;;11.90;5.70;;;;;;;12.25;64.98;98025.94;107674;1293;22269;-63
2024/03/28 03:59:02;;;;;;;7.30;5.10;;;;;;;12.23;64.97;98019.01;107579;1304;22717;-63
2024/03/28 04:01:27;;;;;;;;;;;;;;;12.20;64.50;98016.76;107431;1312;22435;-63
2024/03/28 04:03:53;;;;;;;7.60;5.10;;;;;;;12.19;64.63;98019.47;107630;1311;22342;-63
2024/03/28 04:06:18;;;;;;;10.80;5.20;;;;;;;12.17;64.89;98021.64;107664;1291;22276;-63
2024/03/28 04:08:44;;;;;;;9.60;5.10;;;;;;;12.16;65.27;98020.16;107480;1312;22375;-63
2024/03/28 04:11:09;;;;;;;14.10;4.80;;;;;;;12.13;65.26;98021.39;107643;1312;22258;-63
2024/03/28 04:13:35;;;;;;;8.00;5.10;;;;;;;12.10;65.00;98025.34;107640;1312;22276;-63
2024/03/28 04:16:00;;;;;;;10.80;5.00;;;;;;;12.11;64.76;98026.54;107454;1295;22399;-63
2024/03/28 04:18:26;;;;;;;8.30;4.60;;;;;;;12.10;65.23;98025.00;107598;1312;22324;-63
2024/03/28 04:20:53;;;;;;;8.00;4.70;;;;;;;12.09;65.47;98020.42;107640;1305;22278;-63
2024/03/28 04:23:19;;;;;;;10.60;4.90;;;;;;;12.09;65.78;98019.27;107642;1312;22270;-63
2024/03/28 04:25:53;;;;;;;13.20;5.20;;;;;;;12.09;65.35;98019.95;107645;1291;22299;-63
2024/03/28 04:28:19;;;;;;;8.90;4.50;;;;;;;12.09;65.60;98024.77;107653;1312;22253;-63
2024/03/28 04:30:44;;;;;;;9.40;5.30;;;;;;;12.07;66.51;98025.02;107435;1312;22198;-63
2024/03/28 04:33:09;;;;;;;14.00;5.30;;;;;;;12.00;67.70;98023.64;107609;1312;22233;-63
2024/03/28 04:35:35;;;;;;;10.30;5.30;;;;;;;11.88;66.75;98013.69;107336;1296;22285;-63
2024/03/28 04:38:00;;;;;;;14.30;4.90;;;;;;;11.81;66.26;98006.19;107503;1312;22293;-60
2024/03/28 04:40:26;;;;;;;12.90;5.50;;;;;;;11.78;67.69;98001.55;107459;1310;22243;-61
2024/03/28 04:42:51;;;;;;;15.30;5.10;;;;;;;11.78;66.92;97999.45;107380;1312;22814;-61
2024/03/28 04:45:20;;;;;;;13.00;5.80;;;;;;;11.79;66.99;97998.70;107467;1289;22256;-60
2024/03/28 04:47:47;;;;;;;15.80;5.20;;;;;;;11.78;68.09;97995.29;107337;1312;22243;-61
2024/03/28 04:50:13;;;;;;;6.20;4.80;;;;;;;11.75;67.28;97990.12;107502;1312;22319;-61
2024/03/28 04:52:39;;;;;;;8.90;4.90;;;;;;;11.73;66.75;97987.52;107494;1307;22237;-60
2024/03/28 04:55:05;;;;;;;11.70;5.10;;;;;;;11.73;67.16;97982.67;107457;1312;22267;-62
2024/03/28 04:57:31;;;;;;;9.90;5.30;;;;;;;11.73;67.61;97983.55;107467;1290;22680;-61
2024/03/28 04:59:57;;;;;;;12.40;5.70;;;;;;;11.71;67.52;97983.11;107477;1304;22959;-61
2024/03/28 05:02:22;;;;;;;11.50;4.70;;;;;;;11.72;67.42;97981.71;107446;1312;22261;-60
2024/03/28 05:04:48;;;;;;;15.70;5.50;;;;;;;11.73;67.07;97987.49;107474;1312;23111;-61
2024/03/28 05:07:13;;;;;;;8.40;4.60;;;;;;;11.74;67.73;97984.52;107439;1291;22355;-61
2024/03/28 05:09:39;;;;;;;11.50;5.80;;;;;;;11.77;68.13;97979.36;107438;1304;22287;-60
2024/03/28 05:12:05;;;;;;;12.40;5.10;;;;;;;11.80;68.12;97980.51;107336;1307;22233;-60
2024/03/28 05:14:30;;;;;;;9.30;4.90;;;;;;;11.86;68.18;97988.40;107504;1312;22265;-61
2024/03/28 05:16:56;;;;;;;14.30;5.40;;;;;;;11.93;68.38;97986.76;107357;1294;22267;-61
2024/03/28 05:19:21;;;;;;;14.50;5.60;;;;;;;11.97;68.41;97982.59;107484;1305;22284;-61
2024/03/28 05:21:47;;;;;;;10.90;5.40;;;;;;;11.99;68.43;97977.06;107387;1306;22263;-60
2024/03/28 05:24:13;;;;;;;11.00;5.90;;;;;;;12.02;68.10;97975.45;107206;1307;22353;-61
2024/03/28 05:26:38;;;;;;;13.20;5.50;;;;;;;12.07;68.27;97982.75;107309;1294;22386;-60
2024/03/28 05:29:04;;;;;;;13.10;6.00;;;;;;;12.14;68.15;97986.29;107380;1305;22426;-54
2024/03/28 05:31:31;;;;;;;17.00;5.40;;;;;;;12.19;68.59;97988.33;107357;1307;22260;-57
2024/03/28 05:33:57;;;;;;;9.60;5.20;;;;;;;12.27;69.00;97992.51;107252;1306;22408;-58
2024/03/28 05:36:25;;;;;;;20.10;5.70;;;;;;;12.34;68.56;97986.19;107418;1289;22350;-61
2024/03/28 05:38:51;;;;;;;22.30;5.40;;;;;;;12.45;68.59;97982.47;107410;1312;22254;-59
2024/03/28 05:41:16;;;;;;;19.00;5.70;;;;;;;12.55;68.76;97977.31;107340;1312;22237;-59
2024/03/28 05:43:43;;;;;;;20.40;6.70;;;;;;;12.51;69.47;97972.58;107186;1307;22426;-59
2024/03/28 05:46:08;;;;;;;15.80;5.60;;;;;;;12.33;74.25;97971.52;107575;1297;22411;-61
2024/03/28 05:48:34;;;;;;;13.60;6.30;;;;;;;12.00;73.38;97976.97;107663;1293;22312;-62
2024/03/28 05:50:59;;;;;;;20.80;6.70;;;;;;;11.84;74.58;97977.17;107715;1307;22286;-62
2024/03/28 05:53:25;;;;;;;18.10;7.50;;;;;;;11.84;74.60;97976.77;107492;1311;22382;-62
2024/03/28 05:55:50;;;;;;;16.10;5.70;;;;;;;11.84;77.01;97979.59;107450;1312;22293;-62
2024/03/28 05:58:15;;;;;;;17.70;6.40;;;;;;;11.84;77.01;97978.41;107623;1294;22729;-62
2024/03/28 06:00:41;;;;;;;27.80;7.00;;;;;;;11.84;77.39;97980.77;107641;1297;22234;-63
2024/03/28 06:03:06;;;;;;;19.00;6.40;;;;;;;11.86;76.09;97977.52;107686;1305;23157;-62
2024/03/28 06:05:32;;;;;;;13.60;5.70;;;;;;;11.95;75.25;97978.52;107494;1308;22381;-63
2024/03/28 06:07:58;;;;;;;19.20;7.20;;;;;;;12.04;74.61;97976.39;107632;1296;23192;-61
2024/03/28 06:10:23;;;;;;;18.10;6.50;;;;;;;12.10;74.41;97970.77;107623;1308;22333;-61
2024/03/28 06:12:49;;;;;;;14.20;5.80;;;;;;;12.17;73.42;97968.06;107459;1307;23065;-62
2024/03/28 06:15:14;;;;;;;23.50;7.00;;;;;;;12.24;73.27;97971.63;107456;1314;22292;-62
2024/03/28 06:17:39;;;;;;;15.30;5.90;;;;;;;12.30;73.16;97974.01;107501;1294;22395;-62
2024/03/28 06:20:07;;;;;;;20.70;6.00;;;;;;;12.36;72.68;97971.39;107698;1307;22299;-64
2024/03/28 06:22:33;;;;;;;16.00;6.20;;;;;;;12.42;72.84;97974.23;107724;1312;22453;-62
2024/03/28 06:24:58;;;;;;;18.00;6.20;;;;;;;12.50;72.36;97979.23;107717;1312;22243;-62
2024/03/28 06:27:25;;;;;;;24.70;6.60;;;;;;;12.56;72.79;97976.05;107706;1289;22402;-63
2024/03/28 06:29:50;;;;;;;22.10;7.10;;;;;;;12.59;72.42;97978.42;107676;1307;22272;-62
2024/03/28 06:32:24;;;;;;;17.10;6.40;;;;;;;12.65;72.12;97978.02;107573;1306;22264;-63
2024/03/28 06:34:55;;;;;;;15.00;6.20;;;;;;;12.72;71.78;97977.39;107625;1312;22391;-63
2024/03/28 06:37:21;;;;;;;29.60;6.70;;;;;;;12.81;71.94;97987.02;107748;1295;22482;-62
2024/03/28 06:39:48;;;;;;;16.40;6.30;;;;;;;12.92;71.66;97993.68;107737;1293;22424;-63
2024/03/28 06:42:13;;;;;;;25.00;7.20;;;;;;;13.00;71.72;97992.30;107602;1312;22255;-62
2024/03/28 06:44:48;;;;;;;22.10;6.40;;;;;;;13.03;71.83;97988.30;107773;1312;22255;-63
2024/03/28 06:47:15;;;;;;;22.60;7.40;;;;;;;13.02;71.96;97987.12;107569;1306;22379;-63
2024/03/28 06:49:41;;;;;;;29.40;7.20;;;;;;;13.02;72.71;97985.02;107574;1295;22412;-62
2024/03/28 06:52:06;;;;;;;25.60;8.10;;;;;;;12.99;73.86;97991.31;107718;1304;22298;-62
2024/03/28 06:54:32;;;;;;;23.40;8.00;;;;;;;12.97;73.60;97989.05;107633;1306;22391;-62
2024/03/28 06:56:58;;;;;;;22.50;7.40;;;;;;;12.92;73.57;97991.59;107226;1305;22440;-65
2024/03/28 06:59:23;;;;;;;23.10;8.40;;;;;;;12.87;75.13;97987.45;107334;1291;22478;-65
2024/03/28 07:01:49;;;;;;;25.90;9.60;;;;;;;12.84;74.99;97984.92;107280;1306;23272;-65
2024/03/28 07:04:15;;;;;;;27.80;8.10;;;;;;;12.84;75.17;97980.07;107221;1305;22247;-66
2024/03/28 07:06:40;;;;;;;22.80;8.00;;;;;;;12.86;75.41;97981.99;107358;1313;22347;-65
2024/03/28 07:09:07;;;;;;;22.40;7.70;;;;;;;12.91;74.37;97976.99;107222;1292;22453;-66
2024/03/28 07:11:33;;;;;;;29.00;7.60;;;;;;;12.95;74.46;97974.46;107369;1306;23066;-66
2024/03/28 07:13:59;;;;;;;32.00;10.20;;;;;;;12.97;74.84;97979.88;107362;1312;22457;-61
2024/03/28 07:16:25;;;;;;;24.80;8.40;;;;;;;12.97;74.73;97977.29;107222;1307;22247;-63
2024/03/28 07:18:53;;;;;;;27.60;8.00;;;;;;;12.97;75.55;97979.19;107104;1295;264896;-65
2024/03/28 07:21:19;;;;;;;30.20;8.20;;;;;;;12.97;74.78;97976.95;107412;1303;22281;-65
2024/03/28 07:23:47;;;;;;;34.80;8.50;;;;;;;12.98;74.74;97979.67;107239;1307;22259;-64
2024/03/28 07:26:13;;;;;;;32.10;8.50;;;;;;;12.98;74.65;97980.13;107300;1306;22232;-64
2024/03/28 07:28:38;;;;;;;26.50;8.30;;;;;;;13.00;74.52;97976.16;107377;1289;22293;-64
2024/03/28 07:31:03;;;;;;;26.60;7.30;;;;;;;13.03;74.24;97974.08;107365;1307;22447;-64
2024/03/28 07:33:29;;;;;;;22.10;8.10;;;;;;;13.07;73.77;97974.16;107239;1306;22306;-64
2024/03/28 07:35:55;;;;;;;27.20;7.70;;;;;;;13.11;74.28;97972.81;107219;1312;23421;-65
2024/03/28 07:38:20;;;;;;;21.80;6.50;;;;;;;13.18;74.04;97977.21;107382;1307;22594;-64
2024/03/28 07:40:50;;;;;;;22.60;7.00;;;;;;;13.25;73.85;97978.65;107327;1305;23090;-63
2024/03/28 07:43:16;;;;;;;28.20;7.10;;;;;;;13.31;73.53;97970.80;107360;1305;23032;-64
2024/03/28 07:45:43;;;;;;;23.60;6.90;;;;;;;13.37;73.28;97968.27;107220;1306;22480;-64
2024/03/28 07:48:08;;;;;;;22.70;6.70;;;;;;;13.42;73.20;97969.30;107223;1305;22350;-64
2024/03/28 07:50:35;;;;;;;24.60;6.70;;;;;;;13.47;73.34;97974.02;107323;1294;22307;-64
2024/03/28 07:53:00;;;;;;;31.10;7.90;;;;;;;13.53;73.06;97972.49;107231;1307;22260;-64
2024/03/28 07:55:26;;;;;;;24.00;7.40;;;;;;;13.60;72.85;97970.44;107251;1312;23085;-64
2024/03/28 07:57:51;;;;;;;27.60;8.40;;;;;;;13.67;72.87;97971.38;107374;1305;22270;-64
2024/03/28 08:00:18;;;;;;;28.30;7.30;;;;;;;13.72;72.61;97976.37;107324;1290;22978;-64
2024/03/28 08:02:45;;;;;;;21.90;7.00;;;;;;;13.75;72.36;97974.95;107384;1306;22343;-64
2024/03/28 08:05:14;;;;;;;24.10;8.60;;;;;;;13.78;72.41;97975.79;107387;1305;22671;-62
2024/03/28 08:07:39;;;;;;;20.10;7.10;;;;;;;13.81;72.34;97976.23;107387;1307;22396;-63
2024/03/28 08:10:07;;;;;;;27.60;9.10;;;;;;;13.85;72.13;97970.73;107244;1295;22317;-63
2024/03/28 08:12:33;;;;;;;29.20;8.20;;;;;;;14.00;72.34;97972.60;107397;1312;22355;-62
2024/03/28 08:14:59;;;;;;;23.30;7.10;;;;;;;14.23;71.91;97974.18;107362;1309;22349;-62
2024/03/28 08:17:27;;;;;;;17.70;6.90;;;;;;;14.54;70.96;97978.48;107208;1307;22311;-62
2024/03/28 08:19:54;;;;;;;26.90;7.80;;;;;;;14.99;70.37;97976.48;107345;1291;22370;-63
2024/03/28 08:22:19;;;;;;;26.50;7.40;;;;;;;15.93;68.72;97980.52;107400;1305;22937;-62
2024/03/28 08:24:46;;;;;;;29.00;8.20;;;;;;;16.67;67.97;97985.10;107261;1307;22522;-61
2024/03/28 08:27:12;;;;;;;31.00;8.00;;;;;;;17.03;66.13;97981.06;107460;1305;22260;-62
2024/03/28 08:29:38;;;;;;;27.30;7.50;;;;;;;16.85;65.49;97975.77;107355;1289;22479;-63
2024/03/28 08:32:03;;;;;;;29.40;9.30;;;;;;;16.75;67.09;97975.95;107235;1306;23707;-63
2024/03/28 08:34:29;;;;;;;30.50;8.50;;;;;;;16.57;66.26;97976.02;107225;1312;22301;-62
2024/03/28 08:36:54;;;;;;;35.50;8.50;;;;;;;16.31;66.31;97979.52;107400;1307;22301;-62
2024/03/28 08:39:24;;;;;;;25.90;8.20;;;;;;;16.08;66.91;97980.04;107386;1307;22239;-62
2024/03/28 08:41:52;;;;;;;30.60;10.30;;;;;;;15.95;66.10;97982.02;107358;1294;22264;-62
2024/03/28 08:44:21;;;;;;;36.30;8.30;;;;;;;15.90;66.78;97975.98;107265;1297;22341;-63
2024/03/28 08:46:47;;;;;;;25.50;9.00;;;;;;;15.99;66.67;97973.52;107190;1305;22393;-64
2024/03/28 08:49:16;;;;;;;25.90;7.80;;;;;;;16.02;66.77;97969.77;107037;1306;22305;-63
2024/03/28 08:51:42;;;;;;;31.10;8.70;;;;;;;16.05;67.07;97969.16;107133;1295;22274;-62
2024/03/28 08:54:12;;;;;;;36.00;8.10;;;;;;;16.05;66.80;97971.44;107264;1313;22445;-62
2024/03/28 08:56:38;;;;;;;32.80;9.00;;;;;;;15.98;66.95;97975.16;107225;1313;22279;-63
2024/03/28 08:59:04;;;;;;;36.50;8.70;;;;;;;15.92;66.75;97980.17;107199;1306;22353;-62
2024/03/28 09:01:30;;;;;;;35.10;8.10;;;;;;;15.81;66.67;97980.45;107262;1293;22384;-62
2024/03/28 09:03:56;;;;;;;40.70;7.80;;;;;;;15.70;66.81;97980.30;107350;1312;22737;-63
2024/03/28 09:06:22;;;;;;;29.90;8.00;;;;;;;15.61;66.82;97986.11;107337;1306;22403;-63
2024/03/28 09:08:47;;;;;;;35.20;8.70;;;;;;;15.50;66.97;97984.88;107134;1306;22286;-62
2024/03/28 09:11:15;;;;;;;25.00;8.10;;;;;;;15.41;67.23;97978.46;107181;1296;23142;-62
2024/03/28 09:13:41;;;;;;;35.70;8.10;;;;;;;15.34;67.54;97983.55;107193;1307;22371;-62
2024/03/28 09:16:07;;;;;;;31.60;7.60;;;;;;;15.26;67.52;97987.95;107386;1305;22879;-64
2024/03/28 09:18:33;;;;;;;21.50;6.50;;;;;;;15.20;67.39;97986.66;107307;1306;23013;-63
2024/03/28 09:21:08;;;;;;;31.10;7.50;;;;;;;15.14;67.45;97985.36;107221;1291;22295;-61
2024/03/28 09:23:34;;;;;;;23.20;7.80;;;;;;;15.07;67.61;97998.08;107269;1308;22403;-62
2024/03/28 09:25:59;;;;;;;26.70;8.50;;;;;;;14.89;68.61;98015.80;107451;1303;22240;-61
2024/03/28 09:28:25;;;;;;;20.90;7.90;;;;;;;14.54;69.89;98021.66;107414;1312;22313;-61
2024/03/28 09:30:51;;;;;;;20.40;7.00;;;;;;;14.20;71.88;98031.63;107345;1290;22427;-62
2024/03/28 09:33:17;;;;;;;16.90;6.60;;;;;;;13.82;73.89;98037.63;107264;1306;22768;-62
2024/03/28 09:35:46;;;;;;;11.40;7.20;;;;;;;13.53;74.07;98039.30;107310;1312;22485;-61
2024/03/28 09:38:12;;;;;;;11.80;7.10;;;;;;;13.30;76.05;98049.09;107438;1310;22690;-62
2024/03/28 09:40:51;;;;;;;12.40;6.30;;;;;;;13.07;76.79;98057.34;107443;1304;22269;-61
2024/03/28 09:43:18;;;;;;;12.10;8.30;;;;;;;12.87;77.76;98064.92;107395;1294;22324;-62
2024/03/28 09:45:43;;;;;;;;;;;;;;;12.74;76.33;98073.05;107487;1306;22416;-62
2024/03/28 09:48:10;;;;;;;17.40;13.30;;;;;;;12.60;77.14;98072.23;107513;1310;22379;-62
2024/03/28 09:50:39;;;;;;;19.80;14.50;;;;;;;12.41;77.94;98082.30;107572;1307;22336;-61
2024/03/28 09:53:06;;;;;;;21.00;17.50;;;;;;;12.28;77.75;98091.92;107552;1294;22255;-61
2024/03/28 09:55:32;;;;;;;22.00;19.00;;;;;;;12.17;77.67;98094.67;107576;1305;22335;-60
2024/03/28 09:58:01;;;;;;;24.10;20.20;;;;;;;12.09;77.82;98101.60;107394;1307;22322;-61
2024/03/28 10:00:28;;;;;;;27.30;22.20;;;;;;;12.05;77.96;98108.41;107349;1307;22358;-62
2024/03/28 10:02:57;;;;;;;;;;;;;;;11.98;78.39;98110.73;107233;1294;22462;-62
2024/03/28 10:05:24;;;;;;;27.90;21.60;;;;;;;11.91;79.33;98119.63;107296;1311;22303;-62
2024/03/28 10:07:50;;;;;;;31.40;23.10;;;;;;;11.89;78.95;98121.16;107140;1311;22338;-62
2024/03/28 10:10:16;;;;;;;29.80;23.30;;;;;;;11.83;79.43;98127.23;107345;1305;22267;-62
2024/03/28 10:12:55;;;;;;;29.40;23.10;;;;;;;11.80;80.04;98128.25;107288;1291;22520;-62
2024/03/28 10:15:21;;;;;;;29.60;23.70;;;;;;;11.77;81.18;98131.73;107289;1312;22924;-62
2024/03/28 10:18:05;;;;;;;31.20;24.00;;;;;;;11.78;80.15;98130.77;107168;1312;22351;-62
2024/03/28 10:20:32;;;;;;;27.40;22.40;;;;;;;11.81;80.14;98130.24;107314;1305;22901;-62
2024/03/28 10:22:58;;;;;;;27.10;21.80;;;;;;;11.80;81.58;98136.36;107279;1294;22345;-62
2024/03/28 10:25:25;;;;;;;26.60;21.20;;;;;;;11.73;82.85;98137.63;107107;1306;22422;-59
2024/03/28 10:27:50;;;;;;;;;;;;;;;11.68;82.58;98144.67;107174;1304;22457;-60
2024/03/28 10:30:20;;;;;;;32.50;21.90;;;;;;;11.59;83.95;98147.25;107349;1312;22239;-59
2024/03/28 10:32:46;;;;;;;25.80;21.30;;;;;;;11.44;85.34;98140.24;107330;1291;22946;-59
2024/03/28 10:35:12;;;;;;;20.40;14.80;;;;;;;11.30;86.18;98144.17;107213;1307;22316;-61
2024/03/28 10:37:38;;;;;;;13.10;11.10;;;;;;;11.13;87.01;98148.27;107412;1304;22277;-62
2024/03/28 10:40:07;;;;;;;13.40;8.90;;;;;;;10.91;87.11;98150.42;107479;1312;22495;-59
2024/03/28 10:42:37;;;;;;;9.80;8.80;;;;;;;10.79;87.15;98150.96;107472;1290;22268;-60
2024/03/28 10:45:09;;;;;;;9.30;8.50;;;;;;;10.83;87.03;98155.54;107313;1305;22428;-60
2024/03/28 10:47:35;;;;;;;9.40;8.50;;;;;;;10.90;86.53;98160.29;107406;1312;22253;-59
2024/03/28 10:50:17;;;;;;;8.00;6.30;;;;;;;11.05;84.79;98160.63;107479;1307;22371;-62
2024/03/28 10:52:54;;;;;;;6.30;5.70;;;;;;;11.15;83.98;98166.43;107483;1289;23148;-61
2024/03/28 10:55:30;;;;;;;5.20;4.70;;;;;;;11.13;83.27;98182.09;107252;1304;22532;-62
2024/03/28 10:57:57;;;;;;;6.20;5.60;;;;;;;11.11;82.89;98179.40;107241;1304;23219;-62
2024/03/28 11:00:23;;;;;;;5.50;5.00;;;;;;;11.09;82.49;98177.97;107452;1312;22434;-60
2024/03/28 11:02:49;;;;;;;5.70;5.20;;;;;;;11.11;83.18;98175.95;107384;1290;23292;-60
2024/03/28 11:05:17;;;;;;;6.50;5.90;;;;;;;11.09;82.79;98184.21;107409;1304;22258;-60
2024/03/28 11:07:43;;;;;;;8.20;7.40;;;;;;;11.06;82.40;98194.02;107367;1307;22341;-60
2024/03/28 11:10:08;;;;;;;6.10;5.20;;;;;;;10.90;83.67;98203.05;107195;1312;22734;-61
2024/03/28 11:12:36;;;;;;;7.60;6.30;;;;;;;10.71;83.81;98210.31;107367;1297;22262;-60
2024/03/28 11:15:04;;;;;;;6.30;4.50;;;;;;;10.62;84.27;98215.96;107200;1297;22395;-61
2024/03/28 11:17:39;;;;;;;3.50;3.20;;;;;;;10.59;83.69;98228.55;107392;1307;22437;-60
2024/03/28 11:20:09;;;;;;;3.60;3.30;;;;;;;10.52;83.31;98235.80;107246;1307;22294;-62
2024/03/28 11:22:38;;;;;;;3.30;3.00;;;;;;;10.46;82.84;98240.29;107354;1307;22276;-60
2024/03/28 11:25:26;;;;;;;3.50;3.30;;;;;;;10.39;82.61;98257.71;107231;1293;22292;-59